sensor_id;sensor_type;location;lat;lon;timestamp;P1;durP1;ratioP1;P2;durP2;ratioP2
62121;SDS011;48108;47.532;19.084;2023-04-03T03:54:57;4.35;;;3.30;;
62121;SDS011;48108;47.532;19.084;2023-04-03T03:58:00;3.83;;;3.35;;
62121;SDS011;48108;47.532;19.084;2023-04-03T04:01:05;4.60;;;3.50;;
62121;SDS011;48108;47.532;19.084;2023-04-03T04:04:09;4.87;;;3.70;;
62121;SDS011;48108;47.532;19.084;2023-04-03T04:07:12;5.15;;;3.30;;
62121;SDS011;48108;47.532;19.084;2023-04-03T04:10:15;4.45;;;3.80;;
62121;SDS011;48108;47.532;19.084;2023-04-03T04:13:19;4.30;;;3.50;;
62121;SDS011;48108;47.532;19.084;2023-04-03T04:16:22;5.37;;;3.72;;
62121;SDS011;48108;47.532;19.084;2023-04-03T04:19:25;4.87;;;3.70;;
62121;SDS011;48108;47.532;19.084;2023-04-03T04:22:28;4.22;;;3.42;;
62121;SDS011;48108;47.532;19.084;2023-04-03T04:25:31;6.25;;;3.78;;
62121;SDS011;48108;47.532;19.084;2023-04-03T04:28:35;7.18;;;3.80;;
62121;SDS011;48108;47.532;19.084;2023-04-03T04:31:38;7.78;;;3.60;;
62121;SDS011;48108;47.532;19.084;2023-04-03T04:34:42;6.85;;;3.33;;
62121;SDS011;48108;47.532;19.084;2023-04-03T04:37:45;7.22;;;3.78;;
62121;SDS011;48108;47.532;19.084;2023-04-03T04:40:48;6.50;;;3.78;;
62121;SDS011;48108;47.532;19.084;2023-04-03T04:43:51;8.23;;;4.53;;
62121;SDS011;48108;47.532;19.084;2023-04-03T04:46:55;9.52;;;4.18;;
62121;SDS011;48108;47.532;19.084;2023-04-03T04:49:57;5.62;;;3.58;;
62121;SDS011;48108;47.532;19.084;2023-04-03T04:53:01;6.35;;;3.70;;
62121;SDS011;48108;47.532;19.084;2023-04-03T04:56:03;6.70;;;3.72;;
62121;SDS011;48108;47.532;19.084;2023-04-03T04:59:08;7.62;;;4.10;;
62121;SDS011;48108;47.532;19.084;2023-04-03T05:02:10;4.50;;;3.50;;
62121;SDS011;48108;47.532;19.084;2023-04-03T05:05:14;6.72;;;4.18;;
62121;SDS011;48108;47.532;19.084;2023-04-03T05:08:17;5.22;;;3.87;;
62121;SDS011;48108;47.532;19.084;2023-04-03T05:11:21;7.25;;;4.10;;
62121;SDS011;48108;47.532;19.084;2023-04-03T05:14:27;6.22;;;4.07;;
62121;SDS011;48108;47.532;19.084;2023-04-03T05:17:30;4.35;;;3.67;;
62121;SDS011;48108;47.532;19.084;2023-04-03T05:20:35;4.65;;;3.55;;
62121;SDS011;48108;47.532;19.084;2023-04-03T05:23:39;5.30;;;4.00;;
62121;SDS011;48108;47.532;19.084;2023-04-03T05:26:43;7.65;;;4.30;;
62121;SDS011;48108;47.532;19.084;2023-04-03T05:29:46;6.55;;;4.05;;
62121;SDS011;48108;47.532;19.084;2023-04-03T05:32:50;5.37;;;3.83;;
62121;SDS011;48108;47.532;19.084;2023-04-03T05:35:55;4.93;;;3.40;;
62121;SDS011;48108;47.532;19.084;2023-04-03T05:38:58;5.72;;;3.80;;
62121;SDS011;48108;47.532;19.084;2023-04-03T05:42:04;7.45;;;4.00;;
62121;SDS011;48108;47.532;19.084;2023-04-03T05:45:07;6.70;;;3.70;;
62121;SDS011;48108;47.532;19.084;2023-04-03T05:48:10;6.80;;;3.92;;
62121;SDS011;48108;47.532;19.084;2023-04-03T05:51:16;5.22;;;3.37;;
62121;SDS011;48108;47.532;19.084;2023-04-03T05:54:23;5.75;;;3.90;;
62121;SDS011;48108;47.532;19.084;2023-04-03T05:57:28;6.28;;;4.15;;
62121;SDS011;48108;47.532;19.084;2023-04-03T06:00:32;8.43;;;4.00;;
62121;SDS011;48108;47.532;19.084;2023-04-03T06:03:35;6.57;;;4.10;;
62121;SDS011;48108;47.532;19.084;2023-04-03T06:09:54;4.62;;;3.90;;
62121;SDS011;48108;47.532;19.084;2023-04-03T06:12:58;6.32;;;3.47;;
62121;SDS011;48108;47.532;19.084;2023-04-03T06:16:01;7.37;;;4.15;;
62121;SDS011;48108;47.532;19.084;2023-04-03T06:19:05;4.70;;;3.83;;
62121;SDS011;48108;47.532;19.084;2023-04-03T06:22:11;5.57;;;3.65;;
62121;SDS011;48108;47.532;19.084;2023-04-03T06:25:14;6.30;;;3.40;;
62121;SDS011;48108;47.532;19.084;2023-04-03T06:28:20;11.00;;;3.40;;
62121;SDS011;48108;47.532;19.084;2023-04-03T06:31:23;5.97;;;3.80;;
62121;SDS011;48108;47.532;19.084;2023-04-03T06:34:26;8.55;;;4.00;;
62121;SDS011;48108;47.532;19.084;2023-04-03T06:37:29;5.50;;;3.55;;
62121;SDS011;48108;47.532;19.084;2023-04-03T06:40:33;5.10;;;3.42;;
62121;SDS011;48108;47.532;19.084;2023-04-03T06:43:38;4.68;;;3.50;;
62121;SDS011;48108;47.532;19.084;2023-04-03T06:46:41;5.75;;;3.80;;
62121;SDS011;48108;47.532;19.084;2023-04-03T06:49:45;3.60;;;3.20;;
62121;SDS011;48108;47.532;19.084;2023-04-03T06:52:48;6.10;;;3.05;;
62121;SDS011;48108;47.532;19.084;2023-04-03T06:55:51;6.05;;;3.35;;
62121;SDS011;48108;47.532;19.084;2023-04-03T06:58:54;3.20;;;2.95;;
62121;SDS011;48108;47.532;19.084;2023-04-03T07:01:59;4.65;;;2.92;;
62121;SDS011;48108;47.532;19.084;2023-04-03T07:05:03;3.33;;;2.60;;
62121;SDS011;48108;47.532;19.084;2023-04-03T07:08:06;4.00;;;2.90;;
62121;SDS011;48108;47.532;19.084;2023-04-03T07:11:09;4.53;;;2.83;;
62121;SDS011;48108;47.532;19.084;2023-04-03T07:14:12;4.62;;;2.90;;
62121;SDS011;48108;47.532;19.084;2023-04-03T07:17:15;3.15;;;2.53;;
62121;SDS011;48108;47.532;19.084;2023-04-03T07:20:18;2.75;;;2.50;;
62121;SDS011;48108;47.532;19.084;2023-04-03T07:23:21;4.03;;;2.47;;
62121;SDS011;48108;47.532;19.084;2023-04-03T07:26:24;3.45;;;2.65;;
62121;SDS011;48108;47.532;19.084;2023-04-03T07:29:28;3.00;;;2.03;;
62121;SDS011;48108;47.532;19.084;2023-04-03T07:32:30;2.97;;;2.30;;
62121;SDS011;48108;47.532;19.084;2023-04-03T07:35:34;3.17;;;2.72;;
62121;SDS011;48108;47.532;19.084;2023-04-03T07:38:37;2.42;;;2.10;;
62121;SDS011;48108;47.532;19.084;2023-04-03T07:41:40;2.42;;;2.22;;
62121;SDS011;48108;47.532;19.084;2023-04-03T07:44:42;2.95;;;2.62;;
62121;SDS011;48108;47.532;19.084;2023-04-03T07:47:46;3.90;;;2.20;;
62121;SDS011;48108;47.532;19.084;2023-04-03T07:50:50;1.60;;;1.50;;
62121;SDS011;48108;47.532;19.084;2023-04-03T07:53:53;2.55;;;2.20;;
62121;SDS011;48108;47.532;19.084;2023-04-03T07:56:56;4.12;;;1.98;;
62121;SDS011;48108;47.532;19.084;2023-04-03T08:00:02;1.83;;;1.73;;
62121;SDS011;48108;47.532;19.084;2023-04-03T08:03:13;2.45;;;2.00;;
62121;SDS011;48108;47.532;19.084;2023-04-03T08:06:19;2.70;;;2.25;;
62121;SDS011;48108;47.532;19.084;2023-04-03T08:12:41;4.85;;;2.20;;
62121;SDS011;48108;47.532;19.084;2023-04-03T08:15:44;4.78;;;2.87;;
62121;SDS011;48108;47.532;19.084;2023-04-03T08:18:48;4.15;;;2.80;;
62121;SDS011;48108;47.532;19.084;2023-04-03T08:21:50;2.42;;;2.22;;
62121;SDS011;48108;47.532;19.084;2023-04-03T08:24:53;2.47;;;2.28;;
62121;SDS011;48108;47.532;19.084;2023-04-03T08:28:00;2.15;;;1.95;;
62121;SDS011;48108;47.532;19.084;2023-04-03T08:31:09;2.30;;;2.10;;
62121;SDS011;48108;47.532;19.084;2023-04-03T08:37:17;5.20;;;1.90;;
62121;SDS011;48108;47.532;19.084;2023-04-03T08:40:20;4.45;;;2.20;;
62121;SDS011;48108;47.532;19.084;2023-04-03T08:50:28;2.25;;;2.05;;
62121;SDS011;48108;47.532;19.084;2023-04-03T08:53:42;2.75;;;1.67;;
62121;SDS011;48108;47.532;19.084;2023-04-03T08:56:53;3.28;;;2.20;;
62121;SDS011;48108;47.532;19.084;2023-04-03T09:00:11;1.98;;;1.77;;
62121;SDS011;48108;47.532;19.084;2023-04-03T09:03:20;2.08;;;1.58;;
62121;SDS011;48108;47.532;19.084;2023-04-03T09:06:26;2.25;;;2.05;;
62121;SDS011;48108;47.532;19.084;2023-04-03T09:09:36;2.05;;;1.85;;
62121;SDS011;48108;47.532;19.084;2023-04-03T09:12:49;2.72;;;2.00;;
62121;SDS011;48108;47.532;19.084;2023-04-03T09:15:56;2.37;;;1.73;;
62121;SDS011;48108;47.532;19.084;2023-04-03T09:19:06;1.60;;;1.50;;
62121;SDS011;48108;47.532;19.084;2023-04-03T09:22:21;2.00;;;1.80;;
62121;SDS011;48108;47.532;19.084;2023-04-03T09:25:32;2.08;;;1.90;;
62121;SDS011;48108;47.532;19.084;2023-04-03T09:28:39;2.00;;;1.75;;
62121;SDS011;48108;47.532;19.084;2023-04-03T09:32:02;2.15;;;1.62;;
62121;SDS011;48108;47.532;19.084;2023-04-03T09:38:45;2.45;;;2.15;;
62121;SDS011;48108;47.532;19.084;2023-04-03T09:41:59;2.20;;;2.00;;
62121;SDS011;48108;47.532;19.084;2023-04-03T09:45:21;2.03;;;1.83;;
62121;SDS011;48108;47.532;19.084;2023-04-03T09:48:27;1.80;;;1.70;;
62121;SDS011;48108;47.532;19.084;2023-04-03T09:51:30;2.00;;;1.80;;
62121;SDS011;48108;47.532;19.084;2023-04-03T09:57:40;1.67;;;1.52;;
62121;SDS011;48108;47.532;19.084;2023-04-03T10:00:43;1.52;;;1.42;;
62121;SDS011;48108;47.532;19.084;2023-04-03T10:07:33;9.10;;;1.98;;
62121;SDS011;48108;47.532;19.084;2023-04-03T10:10:38;1.92;;;1.67;;
62121;SDS011;48108;47.532;19.084;2023-04-03T10:13:49;1.65;;;1.55;;
62121;SDS011;48108;47.532;19.084;2023-04-03T10:23:42;1.55;;;1.45;;
62121;SDS011;48108;47.532;19.084;2023-04-03T10:33:35;2.00;;;1.80;;
62121;SDS011;48108;47.532;19.084;2023-04-03T10:36:51;1.63;;;1.47;;
62121;SDS011;48108;47.532;19.084;2023-04-03T10:40:29;1.25;;;1.23;;
62121;SDS011;48108;47.532;19.084;2023-04-03T10:46:45;2.62;;;1.40;;
62121;SDS011;48108;47.532;19.084;2023-04-03T10:53:52;1.42;;;1.33;;
62121;SDS011;48108;47.532;19.084;2023-04-03T10:57:10;1.55;;;1.45;;
62121;SDS011;48108;47.532;19.084;2023-04-03T11:00:23;1.50;;;1.35;;
62121;SDS011;48108;47.532;19.084;2023-04-03T11:03:42;1.83;;;1.55;;
62121;SDS011;48108;47.532;19.084;2023-04-03T11:10:44;1.30;;;1.20;;
62121;SDS011;48108;47.532;19.084;2023-04-03T11:13:49;1.47;;;1.37;;
62121;SDS011;48108;47.532;19.084;2023-04-03T11:23:31;1.23;;;1.20;;
62121;SDS011;48108;47.532;19.084;2023-04-03T11:26:50;1.12;;;1.10;;
62121;SDS011;48108;47.532;19.084;2023-04-03T11:29:55;3.83;;;1.17;;
62121;SDS011;48108;47.532;19.084;2023-04-03T11:36:07;1.48;;;1.05;;
62121;SDS011;48108;47.532;19.084;2023-04-03T11:39:30;1.92;;;1.20;;
62121;SDS011;48108;47.532;19.084;2023-04-03T11:48:52;1.55;;;1.10;;
62121;SDS011;48108;47.532;19.084;2023-04-03T11:51:58;1.48;;;1.37;;
62121;SDS011;48108;47.532;19.084;2023-04-03T11:55:01;1.52;;;1.42;;
62121;SDS011;48108;47.532;19.084;2023-04-03T11:58:10;1.77;;;1.23;;
62121;SDS011;48108;47.532;19.084;2023-04-03T12:01:42;1.45;;;1.30;;
62121;SDS011;48108;47.532;19.084;2023-04-03T12:05:24;1.33;;;1.23;;
62121;SDS011;48108;47.532;19.084;2023-04-03T12:11:36;2.60;;;1.33;;
62121;SDS011;48108;47.532;19.084;2023-04-03T12:14:39;3.47;;;1.50;;
62121;SDS011;48108;47.532;19.084;2023-04-03T12:17:42;1.75;;;1.50;;
62121;SDS011;48108;47.532;19.084;2023-04-03T12:20:46;1.48;;;1.37;;
62121;SDS011;48108;47.532;19.084;2023-04-03T12:27:20;1.80;;;1.60;;
62121;SDS011;48108;47.532;19.084;2023-04-03T12:30:27;1.92;;;1.23;;
62121;SDS011;48108;47.532;19.084;2023-04-03T12:47:56;1.90;;;1.52;;
62121;SDS011;48108;47.532;19.084;2023-04-03T12:50:59;1.60;;;1.50;;
62121;SDS011;48108;47.532;19.084;2023-04-03T12:54:13;1.20;;;1.20;;
62121;SDS011;48108;47.532;19.084;2023-04-03T12:57:22;1.40;;;1.30;;
62121;SDS011;48108;47.532;19.084;2023-04-03T13:00:28;1.30;;;1.20;;
62121;SDS011;48108;47.532;19.084;2023-04-03T13:03:37;1.70;;;1.60;;
62121;SDS011;48108;47.532;19.084;2023-04-03T13:06:43;1.20;;;1.10;;
62121;SDS011;48108;47.532;19.084;2023-04-03T13:09:55;1.60;;;1.10;;
62121;SDS011;48108;47.532;19.084;2023-04-03T13:13:07;2.03;;;1.40;;
62121;SDS011;48108;47.532;19.084;2023-04-03T13:16:12;1.50;;;1.40;;
62121;SDS011;48108;47.532;19.084;2023-04-03T13:19:16;4.72;;;1.58;;
62121;SDS011;48108;47.532;19.084;2023-04-03T13:22:31;1.00;;;0.98;;
62121;SDS011;48108;47.532;19.084;2023-04-03T13:25:42;2.58;;;1.35;;
62121;SDS011;48108;47.532;19.084;2023-04-03T13:28:48;1.50;;;1.23;;
62121;SDS011;48108;47.532;19.084;2023-04-03T13:31:55;2.28;;;1.20;;
62121;SDS011;48108;47.532;19.084;2023-04-03T13:34:59;3.67;;;1.40;;
62121;SDS011;48108;47.532;19.084;2023-04-03T13:41:25;2.60;;;1.08;;
62121;SDS011;48108;47.532;19.084;2023-04-03T13:44:38;1.20;;;1.10;;
62121;SDS011;48108;47.532;19.084;2023-04-03T13:47:44;1.40;;;1.17;;
62121;SDS011;48108;47.532;19.084;2023-04-03T13:54:13;1.42;;;1.33;;
62121;SDS011;48108;47.532;19.084;2023-04-03T13:57:22;2.60;;;1.58;;
62121;SDS011;48108;47.532;19.084;2023-04-03T14:00:30;1.48;;;1.35;;
62121;SDS011;48108;47.532;19.084;2023-04-03T14:03:41;3.47;;;1.20;;
62121;SDS011;48108;47.532;19.084;2023-04-03T14:06:47;1.48;;;1.37;;
62121;SDS011;48108;47.532;19.084;2023-04-03T14:09:50;1.50;;;1.40;;
62121;SDS011;48108;47.532;19.084;2023-04-03T14:12:54;1.25;;;1.15;;
62121;SDS011;48108;47.532;19.084;2023-04-03T14:15:58;1.92;;;1.50;;
62121;SDS011;48108;47.532;19.084;2023-04-03T14:19:19;1.30;;;1.17;;
62121;SDS011;48108;47.532;19.084;2023-04-03T14:22:26;1.27;;;1.17;;
62121;SDS011;48108;47.532;19.084;2023-04-03T14:25:31;1.42;;;1.25;;
62121;SDS011;48108;47.532;19.084;2023-04-03T14:28:35;1.45;;;1.35;;
62121;SDS011;48108;47.532;19.084;2023-04-03T14:31:39;2.17;;;1.25;;
62121;SDS011;48108;47.532;19.084;2023-04-03T14:34:44;1.33;;;1.23;;
62121;SDS011;48108;47.532;19.084;2023-04-03T14:37:48;1.10;;;1.00;;
62121;SDS011;48108;47.532;19.084;2023-04-03T14:40:53;2.47;;;1.65;;
62121;SDS011;48108;47.532;19.084;2023-04-03T14:44:00;1.15;;;1.05;;
62121;SDS011;48108;47.532;19.084;2023-04-03T14:47:03;1.25;;;1.15;;
62121;SDS011;48108;47.532;19.084;2023-04-03T14:50:06;1.33;;;1.23;;
62121;SDS011;48108;47.532;19.084;2023-04-03T14:53:10;1.27;;;1.23;;
62121;SDS011;48108;47.532;19.084;2023-04-03T14:56:16;1.45;;;1.35;;
62121;SDS011;48108;47.532;19.084;2023-04-03T14:59:30;1.30;;;1.30;;
62121;SDS011;48108;47.532;19.084;2023-04-03T15:02:35;2.15;;;1.55;;
62121;SDS011;48108;47.532;19.084;2023-04-03T15:05:41;2.08;;;1.40;;
62121;SDS011;48108;47.532;19.084;2023-04-03T15:08:45;2.87;;;1.83;;
62121;SDS011;48108;47.532;19.084;2023-04-03T15:11:49;2.17;;;1.23;;
62121;SDS011;48108;47.532;19.084;2023-04-03T15:14:53;1.45;;;1.35;;
62121;SDS011;48108;47.532;19.084;2023-04-03T15:18:05;2.03;;;1.83;;
62121;SDS011;48108;47.532;19.084;2023-04-03T15:21:09;1.83;;;1.65;;
62121;SDS011;48108;47.532;19.084;2023-04-03T15:24:12;1.80;;;1.60;;
62121;SDS011;48108;47.532;19.084;2023-04-03T15:27:14;2.00;;;1.62;;
62121;SDS011;48108;47.532;19.084;2023-04-03T15:30:19;2.12;;;1.73;;
62121;SDS011;48108;47.532;19.084;2023-04-03T15:33:22;13.75;;;3.37;;
62121;SDS011;48108;47.532;19.084;2023-04-03T15:36:25;2.45;;;2.08;;
62121;SDS011;48108;47.532;19.084;2023-04-03T15:39:36;2.33;;;2.08;;
62121;SDS011;48108;47.532;19.084;2023-04-03T15:42:39;3.50;;;2.15;;
62121;SDS011;48108;47.532;19.084;2023-04-03T15:45:42;2.65;;;2.10;;
62121;SDS011;48108;47.532;19.084;2023-04-03T15:48:46;2.75;;;2.50;;
62121;SDS011;48108;47.532;19.084;2023-04-03T15:51:49;2.72;;;2.20;;
62121;SDS011;48108;47.532;19.084;2023-04-03T15:54:53;3.20;;;2.35;;
